<?xml version="1.0" encoding="utf-8"?>
<gpx xmlns:xsi="http://www.w3.org/2001/XMLSchema-instance" xmlns:xsd="http://www.w3.org/2001/XMLSchema" version="1.1" creator="Shapelink.com" xmlns="http://www.topografix.com/GPX/1/1" xmlns:gpxtpx="http://www.garmin.com/xmlschemas/TrackPointExtension/v1">
  <metadata>
    <name>Ejecutar 3.86 km, 2020-03-26</name>
    <desc></desc>
    <author><name>Per Rooth</name></author> 
    <time>2020-03-26T19:04:21Z</time>
  </metadata>
  <trk>
    <name>Ejecutar 3.86 km, 2020-03-26</name>
    <trkseg>
      <trkpt lat="57.099660133422" lon="14.94241145362">
        <ele>175.8</ele>
        <time>2020-03-26T19:04:21Z</time>
      </trkpt>
      <trkpt lat="57.099686955502" lon="14.942423272099">
        <ele>176.2</ele>
        <time>2020-03-26T19:04:22Z</time>
      </trkpt>
      <trkpt lat="57.099789717596" lon="14.94247012692">
        <ele>177</ele>
        <time>2020-03-26T19:04:27Z</time>
      </trkpt>
      <trkpt lat="57.099868758913" lon="14.942561992544">
        <ele>177.4</ele>
        <time>2020-03-26T19:04:31Z</time>
      </trkpt>
      <trkpt lat="57.100004629512" lon="14.942829542792">
        <ele>177.2</ele>
        <time>2020-03-26T19:04:39Z</time>
      </trkpt>
      <trkpt lat="57.100143014681" lon="14.943079155774">
        <ele>178.4</ele>
        <time>2020-03-26T19:04:47Z</time>
      </trkpt>
      <trkpt lat="57.100248542802" lon="14.943337821208">
        <ele>177.8</ele>
        <time>2020-03-26T19:04:53Z</time>
      </trkpt>
      <trkpt lat="57.100429675661" lon="14.943504788656">
        <ele>177.6</ele>
        <time>2020-03-26T19:05:01Z</time>
      </trkpt>
      <trkpt lat="57.100615418565" lon="14.943619369229">
        <ele>177.6</ele>
        <time>2020-03-26T19:05:12Z</time>
      </trkpt>
      <trkpt lat="57.100797976347" lon="14.943684748049">
        <ele>178.8</ele>
        <time>2020-03-26T19:05:20Z</time>
      </trkpt>
      <trkpt lat="57.100871904705" lon="14.943714503794">
        <ele>178.8</ele>
        <time>2020-03-26T19:05:23Z</time>
      </trkpt>
      <trkpt lat="57.101060329817" lon="14.94378273246">
        <ele>179</ele>
        <time>2020-03-26T19:05:32Z</time>
      </trkpt>
      <trkpt lat="57.101075920151" lon="14.943774266741">
        <ele>179</ele>
        <time>2020-03-26T19:05:33Z</time>
      </trkpt>
      <trkpt lat="57.101111710864" lon="14.943759346959">
        <ele>179.4</ele>
        <time>2020-03-26T19:05:35Z</time>
      </trkpt>
      <trkpt lat="57.101131827424" lon="14.943754234">
        <ele>179.4</ele>
        <time>2020-03-26T19:05:36Z</time>
      </trkpt>
      <trkpt lat="57.101191841828" lon="14.943759598416">
        <ele>179.6</ele>
        <time>2020-03-26T19:05:39Z</time>
      </trkpt>
      <trkpt lat="57.101226710532" lon="14.943801843192">
        <ele>179.8</ele>
        <time>2020-03-26T19:05:42Z</time>
      </trkpt>
      <trkpt lat="57.101253364974" lon="14.94382045101">
        <ele>179.8</ele>
        <time>2020-03-26T19:05:44Z</time>
      </trkpt>
      <trkpt lat="57.101280019416" lon="14.943863114881">
        <ele>179.6</ele>
        <time>2020-03-26T19:05:46Z</time>
      </trkpt>
      <trkpt lat="57.101391414867" lon="14.944051037079">
        <ele>178.2</ele>
        <time>2020-03-26T19:05:52Z</time>
      </trkpt>
      <trkpt lat="57.101449166158" lon="14.944077440064">
        <ele>177.4</ele>
        <time>2020-03-26T19:05:55Z</time>
      </trkpt>
      <trkpt lat="57.101524603258" lon="14.944138544115">
        <ele>177.2</ele>
        <time>2020-03-26T19:06:03Z</time>
      </trkpt>
      <trkpt lat="57.101544468361" lon="14.944163605996">
        <ele>177</ele>
        <time>2020-03-26T19:06:06Z</time>
      </trkpt>
      <trkpt lat="57.101602806385" lon="14.944216579604">
        <ele>176.8</ele>
        <time>2020-03-26T19:06:12Z</time>
      </trkpt>
      <trkpt lat="57.10167782439" lon="14.944371225659">
        <ele>176.6</ele>
        <time>2020-03-26T19:06:28Z</time>
      </trkpt>
      <trkpt lat="57.101716129673" lon="14.944409195666">
        <ele>176.4</ele>
        <time>2020-03-26T19:06:33Z</time>
      </trkpt>
      <trkpt lat="57.101813946446" lon="14.944568787042">
        <ele>176</ele>
        <time>2020-03-26T19:07:27Z</time>
      </trkpt>
      <trkpt lat="57.101787543461" lon="14.944687810022">
        <ele>176.4</ele>
        <time>2020-03-26T19:07:36Z</time>
      </trkpt>
      <trkpt lat="57.101777988095" lon="14.944757715068">
        <ele>177.4</ele>
        <time>2020-03-26T19:07:39Z</time>
      </trkpt>
      <trkpt lat="57.101768600367" lon="14.945114532551">
        <ele>176.8</ele>
        <time>2020-03-26T19:07:49Z</time>
      </trkpt>
      <trkpt lat="57.101800283949" lon="14.945477133545">
        <ele>176.8</ele>
        <time>2020-03-26T19:07:58Z</time>
      </trkpt>
      <trkpt lat="57.101850994444" lon="14.945811655174">
        <ele>177.2</ele>
        <time>2020-03-26T19:08:08Z</time>
      </trkpt>
      <trkpt lat="57.10191754673" lon="14.946144835699">
        <ele>177.2</ele>
        <time>2020-03-26T19:08:18Z</time>
      </trkpt>
      <trkpt lat="57.101973537822" lon="14.946292692415">
        <ele>176.4</ele>
        <time>2020-03-26T19:08:27Z</time>
      </trkpt>
      <trkpt lat="57.101985188663" lon="14.946336445933">
        <ele>176.2</ele>
        <time>2020-03-26T19:08:29Z</time>
      </trkpt>
      <trkpt lat="57.102031372932" lon="14.946482710088">
        <ele>176.2</ele>
        <time>2020-03-26T19:08:33Z</time>
      </trkpt>
      <trkpt lat="57.102123657651" lon="14.946802060478">
        <ele>176.4</ele>
        <time>2020-03-26T19:08:42Z</time>
      </trkpt>
      <trkpt lat="57.102185851349" lon="14.94712711056">
        <ele>175.8</ele>
        <time>2020-03-26T19:08:51Z</time>
      </trkpt>
      <trkpt lat="57.102261456087" lon="14.947449729891">
        <ele>177</ele>
        <time>2020-03-26T19:09:02Z</time>
      </trkpt>
      <trkpt lat="57.102393135736" lon="14.947703617642">
        <ele>176.2</ele>
        <time>2020-03-26T19:09:12Z</time>
      </trkpt>
      <trkpt lat="57.102418365255" lon="14.94773396012">
        <ele>176</ele>
        <time>2020-03-26T19:09:14Z</time>
      </trkpt>
      <trkpt lat="57.102499585866" lon="14.947882655026">
        <ele>175.8</ele>
        <time>2020-03-26T19:09:21Z</time>
      </trkpt>
      <trkpt lat="57.102521294987" lon="14.947907046355">
        <ele>176</ele>
        <time>2020-03-26T19:09:23Z</time>
      </trkpt>
      <trkpt lat="57.102555074044" lon="14.947953482081">
        <ele>176</ele>
        <time>2020-03-26T19:09:26Z</time>
      </trkpt>
      <trkpt lat="57.102572005482" lon="14.947972257537">
        <ele>176</ele>
        <time>2020-03-26T19:09:28Z</time>
      </trkpt>
      <trkpt lat="57.102611065136" lon="14.948041072936">
        <ele>175.8</ele>
        <time>2020-03-26T19:09:33Z</time>
      </trkpt>
      <trkpt lat="57.102662446183" lon="14.948167220531">
        <ele>175.8</ele>
        <time>2020-03-26T19:09:38Z</time>
      </trkpt>
      <trkpt lat="57.102780966249" lon="14.94844474524">
        <ele>175.6</ele>
        <time>2020-03-26T19:09:47Z</time>
      </trkpt>
      <trkpt lat="57.102817930428" lon="14.948478691935">
        <ele>175.4</ele>
        <time>2020-03-26T19:09:49Z</time>
      </trkpt>
      <trkpt lat="57.102900827419" lon="14.948519511788">
        <ele>175.4</ele>
        <time>2020-03-26T19:09:53Z</time>
      </trkpt>
      <trkpt lat="57.103060921709" lon="14.948700560828">
        <ele>174.8</ele>
        <time>2020-03-26T19:10:03Z</time>
      </trkpt>
      <trkpt lat="57.103212131185" lon="14.948917819676">
        <ele>174.8</ele>
        <time>2020-03-26T19:10:11Z</time>
      </trkpt>
      <trkpt lat="57.103237612161" lon="14.948920585703">
        <ele>174.4</ele>
        <time>2020-03-26T19:10:13Z</time>
      </trkpt>
      <trkpt lat="57.103246999889" lon="14.948917652038">
        <ele>174.2</ele>
        <time>2020-03-26T19:10:14Z</time>
      </trkpt>
      <trkpt lat="57.10344137615" lon="14.948900888238">
        <ele>174</ele>
        <time>2020-03-26T19:10:30Z</time>
      </trkpt>
      <trkpt lat="57.103461241253" lon="14.948897116383">
        <ele>174</ele>
        <time>2020-03-26T19:10:31Z</time>
      </trkpt>
      <trkpt lat="57.103625358855" lon="14.948790582434">
        <ele>175.2</ele>
        <time>2020-03-26T19:10:37Z</time>
      </trkpt>
      <trkpt lat="57.103717475936" lon="14.948725874166">
        <ele>176.4</ele>
        <time>2020-03-26T19:10:40Z</time>
      </trkpt>
      <trkpt lat="57.103874636561" lon="14.948549183714">
        <ele>175.4</ele>
        <time>2020-03-26T19:10:46Z</time>
      </trkpt>
      <trkpt lat="57.104058200171" lon="14.948449271466">
        <ele>176.4</ele>
        <time>2020-03-26T19:10:54Z</time>
      </trkpt>
      <trkpt lat="57.104107904838" lon="14.948358663127">
        <ele>177.4</ele>
        <time>2020-03-26T19:10:58Z</time>
      </trkpt>
      <trkpt lat="57.104240757953" lon="14.948133441474">
        <ele>178</ele>
        <time>2020-03-26T19:11:07Z</time>
      </trkpt>
      <trkpt lat="57.104341927486" lon="14.947860107715">
        <ele>178.2</ele>
        <time>2020-03-26T19:11:16Z</time>
      </trkpt>
      <trkpt lat="57.104409653238" lon="14.947772181584">
        <ele>178.6</ele>
        <time>2020-03-26T19:11:20Z</time>
      </trkpt>
      <trkpt lat="57.104551474986" lon="14.947545451189">
        <ele>179.2</ele>
        <time>2020-03-26T19:11:28Z</time>
      </trkpt>
      <trkpt lat="57.104679131323" lon="14.947420728517">
        <ele>179</ele>
        <time>2020-03-26T19:11:35Z</time>
      </trkpt>
      <trkpt lat="57.104851714644" lon="14.947283097719">
        <ele>179</ele>
        <time>2020-03-26T19:11:45Z</time>
      </trkpt>
      <trkpt lat="57.104985992682" lon="14.947183353109">
        <ele>178</ele>
        <time>2020-03-26T19:11:54Z</time>
      </trkpt>
      <trkpt lat="57.105150194103" lon="14.946969782297">
        <ele>179.4</ele>
        <time>2020-03-26T19:12:03Z</time>
      </trkpt>
      <trkpt lat="57.105161593487" lon="14.94692845953">
        <ele>179.6</ele>
        <time>2020-03-26T19:12:04Z</time>
      </trkpt>
      <trkpt lat="57.105197887114" lon="14.946841874503">
        <ele>179.4</ele>
        <time>2020-03-26T19:12:08Z</time>
      </trkpt>
      <trkpt lat="57.105238958424" lon="14.946693933968">
        <ele>179.2</ele>
        <time>2020-03-26T19:12:12Z</time>
      </trkpt>
      <trkpt lat="57.105301655036" lon="14.946382043469">
        <ele>179.2</ele>
        <time>2020-03-26T19:12:19Z</time>
      </trkpt>
      <trkpt lat="57.105342810165" lon="14.946271570027">
        <ele>178.6</ele>
        <time>2020-03-26T19:12:22Z</time>
      </trkpt>
      <trkpt lat="57.105348761314" lon="14.946183895353">
        <ele>178.4</ele>
        <time>2020-03-26T19:12:24Z</time>
      </trkpt>
      <trkpt lat="57.105516566952" lon="14.945998487725">
        <ele>178.6</ele>
        <time>2020-03-26T19:12:33Z</time>
      </trkpt>
      <trkpt lat="57.105570294931" lon="14.94589832402">
        <ele>177.6</ele>
        <time>2020-03-26T19:12:38Z</time>
      </trkpt>
      <trkpt lat="57.105571887492" lon="14.94588910393">
        <ele>177.6</ele>
        <time>2020-03-26T19:12:39Z</time>
      </trkpt>
      <trkpt lat="57.105595692088" lon="14.94586898737">
        <ele>177.4</ele>
        <time>2020-03-26T19:12:45Z</time>
      </trkpt>
      <trkpt lat="57.105648833334" lon="14.945979963726">
        <ele>177.2</ele>
        <time>2020-03-26T19:12:55Z</time>
      </trkpt>
      <trkpt lat="57.105678253803" lon="14.946064369459">
        <ele>177.2</ele>
        <time>2020-03-26T19:12:57Z</time>
      </trkpt>
      <trkpt lat="57.105749080858" lon="14.946383468392">
        <ele>177.2</ele>
        <time>2020-03-26T19:13:03Z</time>
      </trkpt>
      <trkpt lat="57.105789062521" lon="14.946508693978">
        <ele>179</ele>
        <time>2020-03-26T19:13:06Z</time>
      </trkpt>
      <trkpt lat="57.105830636745" lon="14.946632662279">
        <ele>180.4</ele>
        <time>2020-03-26T19:13:10Z</time>
      </trkpt>
      <trkpt lat="57.105866008363" lon="14.946769538706">
        <ele>180.4</ele>
        <time>2020-03-26T19:13:15Z</time>
      </trkpt>
      <trkpt lat="57.105972374674" lon="14.946878671044">
        <ele>181.4</ele>
        <time>2020-03-26T19:13:21Z</time>
      </trkpt>
      <trkpt lat="57.106123667969" lon="14.947018481136">
        <ele>182.6</ele>
        <time>2020-03-26T19:13:28Z</time>
      </trkpt>
      <trkpt lat="57.106311254891" lon="14.947105820534">
        <ele>183.4</ele>
        <time>2020-03-26T19:13:36Z</time>
      </trkpt>
      <trkpt lat="57.106332796374" lon="14.94711789047">
        <ele>183.8</ele>
        <time>2020-03-26T19:13:37Z</time>
      </trkpt>
      <trkpt lat="57.106397001728" lon="14.947138509944">
        <ele>185.2</ele>
        <time>2020-03-26T19:13:40Z</time>
      </trkpt>
      <trkpt lat="57.106572937809" lon="14.947091990399">
        <ele>186.2</ele>
        <time>2020-03-26T19:13:49Z</time>
      </trkpt>
      <trkpt lat="57.106688272753" lon="14.947008171399">
        <ele>186.8</ele>
        <time>2020-03-26T19:13:54Z</time>
      </trkpt>
      <trkpt lat="57.106863873558" lon="14.947094588788">
        <ele>186.6</ele>
        <time>2020-03-26T19:14:02Z</time>
      </trkpt>
      <trkpt lat="57.106873009829" lon="14.947107664552">
        <ele>186.2</ele>
        <time>2020-03-26T19:14:03Z</time>
      </trkpt>
      <trkpt lat="57.106873009829" lon="14.947157872133">
        <ele>185.4</ele>
        <time>2020-03-26T19:14:06Z</time>
      </trkpt>
      <trkpt lat="57.106879715349" lon="14.947167092223">
        <ele>185.2</ele>
        <time>2020-03-26T19:14:07Z</time>
      </trkpt>
      <trkpt lat="57.106941741409" lon="14.947182682557">
        <ele>184.6</ele>
        <time>2020-03-26T19:14:12Z</time>
      </trkpt>
      <trkpt lat="57.107091023048" lon="14.947385356899">
        <ele>185.2</ele>
        <time>2020-03-26T19:14:20Z</time>
      </trkpt>
      <trkpt lat="57.107265282749" lon="14.94757051307">
        <ele>184.6</ele>
        <time>2020-03-26T19:14:29Z</time>
      </trkpt>
      <trkpt lat="57.107341055125" lon="14.947735552681">
        <ele>184.2</ele>
        <time>2020-03-26T19:14:36Z</time>
      </trkpt>
      <trkpt lat="57.107391346525" lon="14.947788274832">
        <ele>184</ele>
        <time>2020-03-26T19:14:38Z</time>
      </trkpt>
      <trkpt lat="57.107573820488" lon="14.947854324204">
        <ele>185.4</ele>
        <time>2020-03-26T19:14:45Z</time>
      </trkpt>
      <trkpt lat="57.107699046074" lon="14.948150456731">
        <ele>185.2</ele>
        <time>2020-03-26T19:14:52Z</time>
      </trkpt>
      <trkpt lat="57.107817482321" lon="14.948420521549">
        <ele>185.4</ele>
        <time>2020-03-26T19:15:00Z</time>
      </trkpt>
      <trkpt lat="57.107867354626" lon="14.948529067154">
        <ele>185.6</ele>
        <time>2020-03-26T19:15:05Z</time>
      </trkpt>
      <trkpt lat="57.107933320179" lon="14.948861660946">
        <ele>185.8</ele>
        <time>2020-03-26T19:15:14Z</time>
      </trkpt>
      <trkpt lat="57.107991239108" lon="14.949209509796">
        <ele>186</ele>
        <time>2020-03-26T19:15:24Z</time>
      </trkpt>
      <trkpt lat="57.108006326528" lon="14.949230380727">
        <ele>186</ele>
        <time>2020-03-26T19:15:25Z</time>
      </trkpt>
      <trkpt lat="57.108107328423" lon="14.949367257154">
        <ele>186</ele>
        <time>2020-03-26T19:15:32Z</time>
      </trkpt>
      <trkpt lat="57.108159799117" lon="14.949331214984">
        <ele>184</ele>
        <time>2020-03-26T19:15:38Z</time>
      </trkpt>
      <trkpt lat="57.10814529843" lon="14.949268853648">
        <ele>184.2</ele>
        <time>2020-03-26T19:15:42Z</time>
      </trkpt>
      <trkpt lat="57.108145801344" lon="14.949216382954">
        <ele>185</ele>
        <time>2020-03-26T19:15:45Z</time>
      </trkpt>
      <trkpt lat="57.10815200395" lon="14.949192829815">
        <ele>185.2</ele>
        <time>2020-03-26T19:15:46Z</time>
      </trkpt>
      <trkpt lat="57.108175054175" lon="14.949125774615">
        <ele>185.4</ele>
        <time>2020-03-26T19:15:48Z</time>
      </trkpt>
      <trkpt lat="57.10816290042" lon="14.949009266205">
        <ele>186</ele>
        <time>2020-03-26T19:15:51Z</time>
      </trkpt>
      <trkpt lat="57.10815116576" lon="14.948972888759">
        <ele>186.2</ele>
        <time>2020-03-26T19:15:52Z</time>
      </trkpt>
      <trkpt lat="57.108107328423" lon="14.948663177554">
        <ele>185</ele>
        <time>2020-03-26T19:16:00Z</time>
      </trkpt>
      <trkpt lat="57.108087798596" lon="14.948580364382">
        <ele>184</ele>
        <time>2020-03-26T19:16:03Z</time>
      </trkpt>
      <trkpt lat="57.108071705348" lon="14.948524457109">
        <ele>184</ele>
        <time>2020-03-26T19:16:05Z</time>
      </trkpt>
      <trkpt lat="57.108085032569" lon="14.948463017782">
        <ele>184.2</ele>
        <time>2020-03-26T19:16:08Z</time>
      </trkpt>
      <trkpt lat="57.1081897225" lon="14.948141655736">
        <ele>183.6</ele>
        <time>2020-03-26T19:16:19Z</time>
      </trkpt>
      <trkpt lat="57.108217131313" lon="14.94796027142">
        <ele>183</ele>
        <time>2020-03-26T19:16:24Z</time>
      </trkpt>
      <trkpt lat="57.108186034464" lon="14.947639160831">
        <ele>183</ele>
        <time>2020-03-26T19:16:32Z</time>
      </trkpt>
      <trkpt lat="57.108128618449" lon="14.947331796558">
        <ele>183</ele>
        <time>2020-03-26T19:16:40Z</time>
      </trkpt>
      <trkpt lat="57.108128869906" lon="14.947300532071">
        <ele>183</ele>
        <time>2020-03-26T19:16:41Z</time>
      </trkpt>
      <trkpt lat="57.108158290375" lon="14.94716147635">
        <ele>183.8</ele>
        <time>2020-03-26T19:16:45Z</time>
      </trkpt>
      <trkpt lat="57.108146304258" lon="14.947116800823">
        <ele>184</ele>
        <time>2020-03-26T19:16:46Z</time>
      </trkpt>
      <trkpt lat="57.108096767229" lon="14.946966261899">
        <ele>183.6</ele>
        <time>2020-03-26T19:16:52Z</time>
      </trkpt>
      <trkpt lat="57.108065418923" lon="14.946889232238">
        <ele>183.6</ele>
        <time>2020-03-26T19:16:55Z</time>
      </trkpt>
      <trkpt lat="57.108047565476" lon="14.946556806084">
        <ele>183.4</ele>
        <time>2020-03-26T19:17:07Z</time>
      </trkpt>
      <trkpt lat="57.108044212716" lon="14.946541383388">
        <ele>183.4</ele>
        <time>2020-03-26T19:17:08Z</time>
      </trkpt>
      <trkpt lat="57.108032729513" lon="14.946514477489">
        <ele>183.4</ele>
        <time>2020-03-26T19:17:11Z</time>
      </trkpt>
      <trkpt lat="57.108012193858" lon="14.946436190543">
        <ele>183.6</ele>
        <time>2020-03-26T19:17:14Z</time>
      </trkpt>
      <trkpt lat="57.107988640719" lon="14.946292860053">
        <ele>183.8</ele>
        <time>2020-03-26T19:17:20Z</time>
      </trkpt>
      <trkpt lat="57.107971709281" lon="14.946172998883">
        <ele>183.8</ele>
        <time>2020-03-26T19:17:27Z</time>
      </trkpt>
      <trkpt lat="57.107896607457" lon="14.945848116439">
        <ele>183.8</ele>
        <time>2020-03-26T19:17:37Z</time>
      </trkpt>
      <trkpt lat="57.107874060146" lon="14.94578935932">
        <ele>183.8</ele>
        <time>2020-03-26T19:17:41Z</time>
      </trkpt>
      <trkpt lat="57.107940193337" lon="14.945607555909">
        <ele>183.4</ele>
        <time>2020-03-26T19:17:57Z</time>
      </trkpt>
      <trkpt lat="57.107976738421" lon="14.945566316961">
        <ele>183.6</ele>
        <time>2020-03-26T19:17:59Z</time>
      </trkpt>
      <trkpt lat="57.108036417549" lon="14.945472439681">
        <ele>184</ele>
        <time>2020-03-26T19:18:03Z</time>
      </trkpt>
      <trkpt lat="57.108067430579" lon="14.945422483557">
        <ele>184.6</ele>
        <time>2020-03-26T19:18:07Z</time>
      </trkpt>
      <trkpt lat="57.108109340079" lon="14.945414185476">
        <ele>185</ele>
        <time>2020-03-26T19:18:10Z</time>
      </trkpt>
      <trkpt lat="57.108188465215" lon="14.9453635588">
        <ele>185.4</ele>
        <time>2020-03-26T19:18:15Z</time>
      </trkpt>
      <trkpt lat="57.108244456307" lon="14.945321733119">
        <ele>186.2</ele>
        <time>2020-03-26T19:18:18Z</time>
      </trkpt>
      <trkpt lat="57.108265830152" lon="14.945317961264">
        <ele>186</ele>
        <time>2020-03-26T19:18:20Z</time>
      </trkpt>
      <trkpt lat="57.10831628919" lon="14.945301448921">
        <ele>185.2</ele>
        <time>2020-03-26T19:18:23Z</time>
      </trkpt>
      <trkpt lat="57.108425756804" lon="14.945240177232">
        <ele>184.2</ele>
        <time>2020-03-26T19:18:29Z</time>
      </trkpt>
      <trkpt lat="57.108441263319" lon="14.94523950668">
        <ele>183.8</ele>
        <time>2020-03-26T19:18:30Z</time>
      </trkpt>
      <trkpt lat="57.108465738467" lon="14.945230538047">
        <ele>183.6</ele>
        <time>2020-03-26T19:18:31Z</time>
      </trkpt>
      <trkpt lat="57.108476215842" lon="14.945226347097">
        <ele>183.2</ele>
        <time>2020-03-26T19:18:33Z</time>
      </trkpt>
      <trkpt lat="57.10842944484" lon="14.9452462122">
        <ele>183</ele>
        <time>2020-03-26T19:18:43Z</time>
      </trkpt>
      <trkpt lat="57.108394324679" lon="14.945248894408">
        <ele>183</ele>
        <time>2020-03-26T19:18:47Z</time>
      </trkpt>
      <trkpt lat="57.108227524869" lon="14.945192148945">
        <ele>184.2</ele>
        <time>2020-03-26T19:18:56Z</time>
      </trkpt>
      <trkpt lat="57.108203720273" lon="14.945210086211">
        <ele>184.4</ele>
        <time>2020-03-26T19:18:58Z</time>
      </trkpt>
      <trkpt lat="57.108004314872" lon="14.945165494503">
        <ele>183.4</ele>
        <time>2020-03-26T19:19:08Z</time>
      </trkpt>
      <trkpt lat="57.107924351546" lon="14.94513389474">
        <ele>183</ele>
        <time>2020-03-26T19:19:13Z</time>
      </trkpt>
      <trkpt lat="57.107911024325" lon="14.945124255555">
        <ele>182.8</ele>
        <time>2020-03-26T19:19:14Z</time>
      </trkpt>
      <trkpt lat="57.107857463984" lon="14.945127608315">
        <ele>182.8</ele>
        <time>2020-03-26T19:19:17Z</time>
      </trkpt>
      <trkpt lat="57.107781356332" lon="14.945147976332">
        <ele>183</ele>
        <time>2020-03-26T19:19:21Z</time>
      </trkpt>
      <trkpt lat="57.107696531504" lon="14.945246966571">
        <ele>182.6</ele>
        <time>2020-03-26T19:19:27Z</time>
      </trkpt>
      <trkpt lat="57.107661327524" lon="14.945278817791">
        <ele>182.6</ele>
        <time>2020-03-26T19:19:30Z</time>
      </trkpt>
      <trkpt lat="57.107610449391" lon="14.945310249916">
        <ele>182.8</ele>
        <time>2020-03-26T19:19:33Z</time>
      </trkpt>
      <trkpt lat="57.10741355856" lon="14.945335311797">
        <ele>183.6</ele>
        <time>2020-03-26T19:19:45Z</time>
      </trkpt>
      <trkpt lat="57.107386987937" lon="14.945301784197">
        <ele>183.4</ele>
        <time>2020-03-26T19:19:47Z</time>
      </trkpt>
      <trkpt lat="57.107363015703" lon="14.945243110897">
        <ele>183.4</ele>
        <time>2020-03-26T19:19:49Z</time>
      </trkpt>
      <trkpt lat="57.10724172961" lon="14.945168763444">
        <ele>183.6</ele>
        <time>2020-03-26T19:19:54Z</time>
      </trkpt>
      <trkpt lat="57.107086832098" lon="14.944994000829">
        <ele>183.6</ele>
        <time>2020-03-26T19:20:01Z</time>
      </trkpt>
      <trkpt lat="57.107035702508" lon="14.944979332504">
        <ele>183.6</ele>
        <time>2020-03-26T19:20:04Z</time>
      </trkpt>
      <trkpt lat="57.107003096917" lon="14.945030210637">
        <ele>183</ele>
        <time>2020-03-26T19:20:08Z</time>
      </trkpt>
      <trkpt lat="57.107000247071" lon="14.945361379506">
        <ele>182.4</ele>
        <time>2020-03-26T19:20:20Z</time>
      </trkpt>
      <trkpt lat="57.106989769696" lon="14.945383004808">
        <ele>182.6</ele>
        <time>2020-03-26T19:20:22Z</time>
      </trkpt>
      <trkpt lat="57.106900837737" lon="14.945358026746">
        <ele>182.4</ele>
        <time>2020-03-26T19:20:29Z</time>
      </trkpt>
      <trkpt lat="57.106889019258" lon="14.945371437786">
        <ele>182.4</ele>
        <time>2020-03-26T19:20:31Z</time>
      </trkpt>
      <trkpt lat="57.106869657069" lon="14.945418711702">
        <ele>182.2</ele>
        <time>2020-03-26T19:20:33Z</time>
      </trkpt>
      <trkpt lat="57.106859598789" lon="14.945480653943">
        <ele>182.4</ele>
        <time>2020-03-26T19:20:37Z</time>
      </trkpt>
      <trkpt lat="57.106855240201" lon="14.945524575099">
        <ele>182.4</ele>
        <time>2020-03-26T19:20:39Z</time>
      </trkpt>
      <trkpt lat="57.106848199405" lon="14.945582158752">
        <ele>182.2</ele>
        <time>2020-03-26T19:20:43Z</time>
      </trkpt>
      <trkpt lat="57.106849875785" lon="14.945592300851">
        <ele>182.2</ele>
        <time>2020-03-26T19:20:44Z</time>
      </trkpt>
      <trkpt lat="57.106781479481" lon="14.945775529185">
        <ele>181.8</ele>
        <time>2020-03-26T19:20:57Z</time>
      </trkpt>
      <trkpt lat="57.106773516676" lon="14.945794723736">
        <ele>181.8</ele>
        <time>2020-03-26T19:20:58Z</time>
      </trkpt>
      <trkpt lat="57.106754908858" lon="14.945843674032">
        <ele>181.8</ele>
        <time>2020-03-26T19:21:02Z</time>
      </trkpt>
      <trkpt lat="57.106775025418" lon="14.946023968701">
        <ele>182.4</ele>
        <time>2020-03-26T19:21:07Z</time>
      </trkpt>
      <trkpt lat="57.106794219969" lon="14.946122875121">
        <ele>182.8</ele>
        <time>2020-03-26T19:21:09Z</time>
      </trkpt>
      <trkpt lat="57.10686202954" lon="14.946453457257">
        <ele>183.2</ele>
        <time>2020-03-26T19:21:17Z</time>
      </trkpt>
      <trkpt lat="57.10687460239" lon="14.94653031928">
        <ele>183.2</ele>
        <time>2020-03-26T19:21:19Z</time>
      </trkpt>
      <trkpt lat="57.106905028687" lon="14.946860147045">
        <ele>183.8</ele>
        <time>2020-03-26T19:21:27Z</time>
      </trkpt>
      <trkpt lat="57.10690142447" lon="14.946901218355">
        <ele>184</ele>
        <time>2020-03-26T19:21:28Z</time>
      </trkpt>
      <trkpt lat="57.106896143873" lon="14.9470064112">
        <ele>184</ele>
        <time>2020-03-26T19:21:32Z</time>
      </trkpt>
      <trkpt lat="57.106910057827" lon="14.947036250764">
        <ele>183.8</ele>
        <time>2020-03-26T19:21:34Z</time>
      </trkpt>
      <trkpt lat="57.106929839111" lon="14.947061480283">
        <ele>183.6</ele>
        <time>2020-03-26T19:21:37Z</time>
      </trkpt>
      <trkpt lat="57.106931431672" lon="14.946980594948">
        <ele>183.6</ele>
        <time>2020-03-26T19:21:47Z</time>
      </trkpt>
      <trkpt lat="57.106872590734" lon="14.946862158701">
        <ele>184</ele>
        <time>2020-03-26T19:21:54Z</time>
      </trkpt>
      <trkpt lat="57.106721967991" lon="14.946626208216">
        <ele>185</ele>
        <time>2020-03-26T19:22:04Z</time>
      </trkpt>
      <trkpt lat="57.106705120372" lon="14.946596871566">
        <ele>185</ele>
        <time>2020-03-26T19:22:05Z</time>
      </trkpt>
      <trkpt lat="57.106537901467" lon="14.946454295447">
        <ele>184</ele>
        <time>2020-03-26T19:22:12Z</time>
      </trkpt>
      <trkpt lat="57.106455591209" lon="14.946270228923">
        <ele>183</ele>
        <time>2020-03-26T19:22:17Z</time>
      </trkpt>
      <trkpt lat="57.106424326722" lon="14.946158414377">
        <ele>181.8</ele>
        <time>2020-03-26T19:22:20Z</time>
      </trkpt>
      <trkpt lat="57.106330030347" lon="14.94587736927">
        <ele>180.6</ele>
        <time>2020-03-26T19:22:28Z</time>
      </trkpt>
      <trkpt lat="57.106275045083" lon="14.945686345769">
        <ele>179.6</ele>
        <time>2020-03-26T19:22:33Z</time>
      </trkpt>
      <trkpt lat="57.106216204145" lon="14.945487946196">
        <ele>178.4</ele>
        <time>2020-03-26T19:22:39Z</time>
      </trkpt>
      <trkpt lat="57.106114028784" lon="14.945208661288">
        <ele>178.4</ele>
        <time>2020-03-26T19:22:47Z</time>
      </trkpt>
      <trkpt lat="57.106104724875" lon="14.94518502433">
        <ele>178.4</ele>
        <time>2020-03-26T19:22:48Z</time>
      </trkpt>
      <trkpt lat="57.106069185619" lon="14.945139594432">
        <ele>178.4</ele>
        <time>2020-03-26T19:22:51Z</time>
      </trkpt>
      <trkpt lat="57.106058121511" lon="14.94501822452">
        <ele>178.8</ele>
        <time>2020-03-26T19:22:54Z</time>
      </trkpt>
      <trkpt lat="57.106053930561" lon="14.944906661431">
        <ele>179.6</ele>
        <time>2020-03-26T19:22:57Z</time>
      </trkpt>
      <trkpt lat="57.105975895072" lon="14.944575911657">
        <ele>180.4</ele>
        <time>2020-03-26T19:23:05Z</time>
      </trkpt>
      <trkpt lat="57.105918898152" lon="14.944305092468">
        <ele>179.8</ele>
        <time>2020-03-26T19:23:13Z</time>
      </trkpt>
      <trkpt lat="57.105875144634" lon="14.944191182447">
        <ele>178.4</ele>
        <time>2020-03-26T19:23:16Z</time>
      </trkpt>
      <trkpt lat="57.105853854608" lon="14.9441062738">
        <ele>177.4</ele>
        <time>2020-03-26T19:23:18Z</time>
      </trkpt>
      <trkpt lat="57.105830804383" lon="14.944017677117">
        <ele>176.2</ele>
        <time>2020-03-26T19:23:21Z</time>
      </trkpt>
      <trkpt lat="57.105827954537" lon="14.94396210512">
        <ele>176.2</ele>
        <time>2020-03-26T19:23:23Z</time>
      </trkpt>
      <trkpt lat="57.105831307297" lon="14.943883482898">
        <ele>177</ele>
        <time>2020-03-26T19:23:26Z</time>
      </trkpt>
      <trkpt lat="57.105827116347" lon="14.943857247551">
        <ele>177.4</ele>
        <time>2020-03-26T19:23:27Z</time>
      </trkpt>
      <trkpt lat="57.105819404999" lon="14.943801088821">
        <ele>178.4</ele>
        <time>2020-03-26T19:23:29Z</time>
      </trkpt>
      <trkpt lat="57.105809849633" lon="14.943764376099">
        <ele>178.8</ele>
        <time>2020-03-26T19:23:30Z</time>
      </trkpt>
      <trkpt lat="57.105763078631" lon="14.943579806661">
        <ele>179.8</ele>
        <time>2020-03-26T19:23:34Z</time>
      </trkpt>
      <trkpt lat="57.105755115826" lon="14.943542674844">
        <ele>180.2</ele>
        <time>2020-03-26T19:23:36Z</time>
      </trkpt>
      <trkpt lat="57.105719911846" lon="14.943391381549">
        <ele>180</ele>
        <time>2020-03-26T19:23:47Z</time>
      </trkpt>
      <trkpt lat="57.105727539375" lon="14.943369923885">
        <ele>180</ele>
        <time>2020-03-26T19:23:49Z</time>
      </trkpt>
      <trkpt lat="57.105748745582" lon="14.943327260014">
        <ele>180</ele>
        <time>2020-03-26T19:23:51Z</time>
      </trkpt>
      <trkpt lat="57.105849747477" lon="14.943135230685">
        <ele>178.4</ele>
        <time>2020-03-26T19:23:59Z</time>
      </trkpt>
      <trkpt lat="57.105970698294" lon="14.942835493941">
        <ele>178.8</ele>
        <time>2020-03-26T19:24:08Z</time>
      </trkpt>
      <trkpt lat="57.106014703269" lon="14.942672214529">
        <ele>178.4</ele>
        <time>2020-03-26T19:24:14Z</time>
      </trkpt>
      <trkpt lat="57.106017804572" lon="14.942643548431">
        <ele>178.2</ele>
        <time>2020-03-26T19:24:16Z</time>
      </trkpt>
      <trkpt lat="57.106062563918" lon="14.942533242627">
        <ele>178.4</ele>
        <time>2020-03-26T19:24:20Z</time>
      </trkpt>
      <trkpt lat="57.106164236365" lon="14.94234272204">
        <ele>177.4</ele>
        <time>2020-03-26T19:24:29Z</time>
      </trkpt>
      <trkpt lat="57.106197763965" lon="14.942216322988">
        <ele>176</ele>
        <time>2020-03-26T19:24:33Z</time>
      </trkpt>
      <trkpt lat="57.106202457829" lon="14.942200313559">
        <ele>175.8</ele>
        <time>2020-03-26T19:24:34Z</time>
      </trkpt>
      <trkpt lat="57.106226765339" lon="14.942182963026">
        <ele>175</ele>
        <time>2020-03-26T19:24:37Z</time>
      </trkpt>
      <trkpt lat="57.106240595474" lon="14.942171060728">
        <ele>175</ele>
        <time>2020-03-26T19:24:38Z</time>
      </trkpt>
      <trkpt lat="57.106258616559" lon="14.942156811498">
        <ele>175</ele>
        <time>2020-03-26T19:24:39Z</time>
      </trkpt>
      <trkpt lat="57.10632307337" lon="14.942071232299">
        <ele>175.2</ele>
        <time>2020-03-26T19:24:44Z</time>
      </trkpt>
      <trkpt lat="57.10634738088" lon="14.942063353313">
        <ele>175.4</ele>
        <time>2020-03-26T19:24:46Z</time>
      </trkpt>
      <trkpt lat="57.106378896824" lon="14.942050026092">
        <ele>175.6</ele>
        <time>2020-03-26T19:24:48Z</time>
      </trkpt>
      <trkpt lat="57.10640186323" lon="14.942028736066">
        <ele>175.6</ele>
        <time>2020-03-26T19:24:50Z</time>
      </trkpt>
      <trkpt lat="57.106431535156" lon="14.942000237606">
        <ele>175.6</ele>
        <time>2020-03-26T19:24:52Z</time>
      </trkpt>
      <trkpt lat="57.106481072185" lon="14.941914155493">
        <ele>175.4</ele>
        <time>2020-03-26T19:24:55Z</time>
      </trkpt>
      <trkpt lat="57.106533710517" lon="14.941790271011">
        <ele>176</ele>
        <time>2020-03-26T19:24:59Z</time>
      </trkpt>
      <trkpt lat="57.106538404381" lon="14.941659764828">
        <ele>176.6</ele>
        <time>2020-03-26T19:25:03Z</time>
      </trkpt>
      <trkpt lat="57.106541757141" lon="14.941582651348">
        <ele>176.8</ele>
        <time>2020-03-26T19:25:05Z</time>
      </trkpt>
      <trkpt lat="57.106562208977" lon="14.941502520384">
        <ele>176.4</ele>
        <time>2020-03-26T19:25:08Z</time>
      </trkpt>
      <trkpt lat="57.106561789882" lon="14.941268413917">
        <ele>175.2</ele>
        <time>2020-03-26T19:25:15Z</time>
      </trkpt>
      <trkpt lat="57.106563550081" lon="14.941227426426">
        <ele>175</ele>
        <time>2020-03-26T19:25:17Z</time>
      </trkpt>
      <trkpt lat="57.106561203149" lon="14.941206052581">
        <ele>175</ele>
        <time>2020-03-26T19:25:18Z</time>
      </trkpt>
      <trkpt lat="57.106532956146" lon="14.941109157817">
        <ele>175.2</ele>
        <time>2020-03-26T19:25:21Z</time>
      </trkpt>
      <trkpt lat="57.106510073559" lon="14.941084431212">
        <ele>176</ele>
        <time>2020-03-26T19:25:26Z</time>
      </trkpt>
      <trkpt lat="57.10641862703" lon="14.941069092335">
        <ele>176</ele>
        <time>2020-03-26T19:25:38Z</time>
      </trkpt>
      <trkpt lat="57.106311003434" lon="14.941143355969">
        <ele>175.4</ele>
        <time>2020-03-26T19:25:45Z</time>
      </trkpt>
      <trkpt lat="57.106132971878" lon="14.941250728108">
        <ele>176.4</ele>
        <time>2020-03-26T19:25:54Z</time>
      </trkpt>
      <trkpt lat="57.106018139848" lon="14.941336642583">
        <ele>177.2</ele>
        <time>2020-03-26T19:26:03Z</time>
      </trkpt>
      <trkpt lat="57.105902385809" lon="14.941399171557">
        <ele>178.2</ele>
        <time>2020-03-26T19:26:10Z</time>
      </trkpt>
      <trkpt lat="57.105848490192" lon="14.941440578143">
        <ele>178.6</ele>
        <time>2020-03-26T19:26:13Z</time>
      </trkpt>
      <trkpt lat="57.105667273514" lon="14.941514003587">
        <ele>178.4</ele>
        <time>2020-03-26T19:26:22Z</time>
      </trkpt>
      <trkpt lat="57.105622262711" lon="14.941502771841">
        <ele>178.2</ele>
        <time>2020-03-26T19:26:24Z</time>
      </trkpt>
      <trkpt lat="57.105564343782" lon="14.941461197617">
        <ele>178.6</ele>
        <time>2020-03-26T19:26:27Z</time>
      </trkpt>
      <trkpt lat="57.105517656599" lon="14.941478883426">
        <ele>179</ele>
        <time>2020-03-26T19:26:30Z</time>
      </trkpt>
      <trkpt lat="57.105474908909" lon="14.941533449595">
        <ele>179</ele>
        <time>2020-03-26T19:26:32Z</time>
      </trkpt>
      <trkpt lat="57.105300062475" lon="14.941688430926">
        <ele>179</ele>
        <time>2020-03-26T19:26:41Z</time>
      </trkpt>
      <trkpt lat="57.105232001447" lon="14.941761269637">
        <ele>179.2</ele>
        <time>2020-03-26T19:26:45Z</time>
      </trkpt>
      <trkpt lat="57.105089090052" lon="14.941969978947">
        <ele>179.4</ele>
        <time>2020-03-26T19:26:53Z</time>
      </trkpt>
      <trkpt lat="57.105002756482" lon="14.942125714649">
        <ele>179.2</ele>
        <time>2020-03-26T19:26:58Z</time>
      </trkpt>
      <trkpt lat="57.104913489247" lon="14.9421365273">
        <ele>178.6</ele>
        <time>2020-03-26T19:27:04Z</time>
      </trkpt>
      <trkpt lat="57.104842243097" lon="14.94212982178">
        <ele>178.8</ele>
        <time>2020-03-26T19:27:08Z</time>
      </trkpt>
      <trkpt lat="57.104817935587" lon="14.942138036042">
        <ele>178.8</ele>
        <time>2020-03-26T19:27:10Z</time>
      </trkpt>
      <trkpt lat="57.104767308911" lon="14.942170306357">
        <ele>178.8</ele>
        <time>2020-03-26T19:27:14Z</time>
      </trkpt>
      <trkpt lat="57.104743420496" lon="14.942186231967">
        <ele>179</ele>
        <time>2020-03-26T19:27:16Z</time>
      </trkpt>
      <trkpt lat="57.104706623955" lon="14.942225962173">
        <ele>179</ele>
        <time>2020-03-26T19:27:19Z</time>
      </trkpt>
      <trkpt lat="57.104688854327" lon="14.942234763168">
        <ele>178.8</ele>
        <time>2020-03-26T19:27:23Z</time>
      </trkpt>
      <trkpt lat="57.104679298961" lon="14.942190339098">
        <ele>179.2</ele>
        <time>2020-03-26T19:27:26Z</time>
      </trkpt>
      <trkpt lat="57.104641999506" lon="14.942169049072">
        <ele>179.4</ele>
        <time>2020-03-26T19:27:28Z</time>
      </trkpt>
      <trkpt lat="57.104581398369" lon="14.942163097923">
        <ele>179</ele>
        <time>2020-03-26T19:27:33Z</time>
      </trkpt>
      <trkpt lat="57.104433206377" lon="14.942167456511">
        <ele>179.2</ele>
        <time>2020-03-26T19:27:41Z</time>
      </trkpt>
      <trkpt lat="57.104341927486" lon="14.94212730721">
        <ele>178.4</ele>
        <time>2020-03-26T19:27:47Z</time>
      </trkpt>
      <trkpt lat="57.104314937768" lon="14.942105095175">
        <ele>178.2</ele>
        <time>2020-03-26T19:27:49Z</time>
      </trkpt>
      <trkpt lat="57.104247966387" lon="14.942081290579">
        <ele>177.4</ele>
        <time>2020-03-26T19:27:54Z</time>
      </trkpt>
      <trkpt lat="57.104220557574" lon="14.942091767954">
        <ele>177.2</ele>
        <time>2020-03-26T19:27:56Z</time>
      </trkpt>
      <trkpt lat="57.104156938953" lon="14.942149435426">
        <ele>176.6</ele>
        <time>2020-03-26T19:28:02Z</time>
      </trkpt>
      <trkpt lat="57.104105306449" lon="14.942133425997">
        <ele>176.6</ele>
        <time>2020-03-26T19:28:06Z</time>
      </trkpt>
      <trkpt lat="57.104052668117" lon="14.942124541183">
        <ele>176.6</ele>
        <time>2020-03-26T19:28:08Z</time>
      </trkpt>
      <trkpt lat="57.103856028743" lon="14.942069304462">
        <ele>177.2</ele>
        <time>2020-03-26T19:28:16Z</time>
      </trkpt>
      <trkpt lat="57.103703226706" lon="14.942029741894">
        <ele>178.4</ele>
        <time>2020-03-26T19:28:22Z</time>
      </trkpt>
      <trkpt lat="57.103503234572" lon="14.942016330854">
        <ele>177.8</ele>
        <time>2020-03-26T19:28:29Z</time>
      </trkpt>
      <trkpt lat="57.103308271578" lon="14.941988000032">
        <ele>177.6</ele>
        <time>2020-03-26T19:28:36Z</time>
      </trkpt>
      <trkpt lat="57.103125127063" lon="14.941919184633">
        <ele>177</ele>
        <time>2020-03-26T19:28:44Z</time>
      </trkpt>
      <trkpt lat="57.102932008087" lon="14.941898062245">
        <ele>176.8</ele>
        <time>2020-03-26T19:28:52Z</time>
      </trkpt>
      <trkpt lat="57.102748025382" lon="14.941832431968">
        <ele>177.2</ele>
        <time>2020-03-26T19:29:00Z</time>
      </trkpt>
      <trkpt lat="57.102683568571" lon="14.941797227988">
        <ele>178</ele>
        <time>2020-03-26T19:29:04Z</time>
      </trkpt>
      <trkpt lat="57.102610226946" lon="14.941776859971">
        <ele>179.2</ele>
        <time>2020-03-26T19:29:08Z</time>
      </trkpt>
      <trkpt lat="57.10251769077" lon="14.941715504463">
        <ele>180.2</ele>
        <time>2020-03-26T19:29:13Z</time>
      </trkpt>
      <trkpt lat="57.10248248679" lon="14.941701171414">
        <ele>180.8</ele>
        <time>2020-03-26T19:29:15Z</time>
      </trkpt>
      <trkpt lat="57.102424819318" lon="14.941614167292">
        <ele>181.4</ele>
        <time>2020-03-26T19:29:19Z</time>
      </trkpt>
      <trkpt lat="57.102355333367" lon="14.941576029647">
        <ele>182.4</ele>
        <time>2020-03-26T19:29:23Z</time>
      </trkpt>
      <trkpt lat="57.102217115836" lon="14.941486259498">
        <ele>183.6</ele>
        <time>2020-03-26T19:29:30Z</time>
      </trkpt>
      <trkpt lat="57.102111839172" lon="14.941402021403">
        <ele>184.8</ele>
        <time>2020-03-26T19:29:35Z</time>
      </trkpt>
      <trkpt lat="57.102021314652" lon="14.941396237892">
        <ele>185.4</ele>
        <time>2020-03-26T19:29:41Z</time>
      </trkpt>
      <trkpt lat="57.101978399324" lon="14.941345611216">
        <ele>185.8</ele>
        <time>2020-03-26T19:29:45Z</time>
      </trkpt>
      <trkpt lat="57.101810509867" lon="14.941218960707">
        <ele>186.4</ele>
        <time>2020-03-26T19:29:53Z</time>
      </trkpt>
      <trkpt lat="57.10163172394" lon="14.941135560802">
        <ele>185</ele>
        <time>2020-03-26T19:30:00Z</time>
      </trkpt>
      <trkpt lat="57.101614038131" lon="14.941122401219">
        <ele>184.6</ele>
        <time>2020-03-26T19:30:01Z</time>
      </trkpt>
      <trkpt lat="57.10149342259" lon="14.941051322707">
        <ele>183.6</ele>
        <time>2020-03-26T19:30:07Z</time>
      </trkpt>
      <trkpt lat="57.101393929437" lon="14.940987284991">
        <ele>182.6</ele>
        <time>2020-03-26T19:30:12Z</time>
      </trkpt>
      <trkpt lat="57.101279600321" lon="14.940881002499">
        <ele>182</ele>
        <time>2020-03-26T19:30:19Z</time>
      </trkpt>
      <trkpt lat="57.101218831546" lon="14.94090187343">
        <ele>182</ele>
        <time>2020-03-26T19:30:22Z</time>
      </trkpt>
      <trkpt lat="57.101179352797" lon="14.940949817898">
        <ele>182</ele>
        <time>2020-03-26T19:30:24Z</time>
      </trkpt>
      <trkpt lat="57.101142388618" lon="14.940965072956">
        <ele>182</ele>
        <time>2020-03-26T19:30:26Z</time>
      </trkpt>
      <trkpt lat="57.101038201601" lon="14.940990470113">
        <ele>182</ele>
        <time>2020-03-26T19:30:30Z</time>
      </trkpt>
      <trkpt lat="57.100987658744" lon="14.94098150148">
        <ele>181.6</ele>
        <time>2020-03-26T19:30:32Z</time>
      </trkpt>
      <trkpt lat="57.10092010063" lon="14.940993403778">
        <ele>180.6</ele>
        <time>2020-03-26T19:30:35Z</time>
      </trkpt>
      <trkpt lat="57.100902414821" lon="14.940993487597">
        <ele>180.4</ele>
        <time>2020-03-26T19:30:36Z</time>
      </trkpt>
      <trkpt lat="57.100839215295" lon="14.940987787905">
        <ele>180</ele>
        <time>2020-03-26T19:30:39Z</time>
      </trkpt>
      <trkpt lat="57.100783056565" lon="14.941003042963">
        <ele>179.8</ele>
        <time>2020-03-26T19:30:42Z</time>
      </trkpt>
      <trkpt lat="57.100708290017" lon="14.940994493425">
        <ele>179.2</ele>
        <time>2020-03-26T19:30:45Z</time>
      </trkpt>
      <trkpt lat="57.100611479072" lon="14.941033636898">
        <ele>178</ele>
        <time>2020-03-26T19:30:50Z</time>
      </trkpt>
      <trkpt lat="57.100589518494" lon="14.941028356301">
        <ele>177.6</ele>
        <time>2020-03-26T19:30:52Z</time>
      </trkpt>
      <trkpt lat="57.100506370046" lon="14.941128603825">
        <ele>177.2</ele>
        <time>2020-03-26T19:30:59Z</time>
      </trkpt>
      <trkpt lat="57.100427999281" lon="14.941198508871">
        <ele>176.6</ele>
        <time>2020-03-26T19:31:02Z</time>
      </trkpt>
      <trkpt lat="57.100379132804" lon="14.941191384256">
        <ele>175.6</ele>
        <time>2020-03-26T19:31:04Z</time>
      </trkpt>
      <trkpt lat="57.100235634676" lon="14.941217535784">
        <ele>174.4</ele>
        <time>2020-03-26T19:31:10Z</time>
      </trkpt>
      <trkpt lat="57.100161873956" lon="14.941188031496">
        <ele>173.8</ele>
        <time>2020-03-26T19:31:14Z</time>
      </trkpt>
      <trkpt lat="57.100070846522" lon="14.940990218656">
        <ele>173.8</ele>
        <time>2020-03-26T19:31:20Z</time>
      </trkpt>
      <trkpt lat="57.100058022215" lon="14.94084152375">
        <ele>173.2</ele>
        <time>2020-03-26T19:31:23Z</time>
      </trkpt>
      <trkpt lat="57.100029859031" lon="14.940663492194">
        <ele>172.2</ele>
        <time>2020-03-26T19:31:26Z</time>
      </trkpt>
      <trkpt lat="57.099948889877" lon="14.940335592266">
        <ele>171.6</ele>
        <time>2020-03-26T19:31:31Z</time>
      </trkpt>
      <trkpt lat="57.099892312052" lon="14.940224448272">
        <ele>171</ele>
        <time>2020-03-26T19:31:34Z</time>
      </trkpt>
      <trkpt lat="57.099860125556" lon="14.940162925126">
        <ele>170.6</ele>
        <time>2020-03-26T19:31:38Z</time>
      </trkpt>
      <trkpt lat="57.099840763367" lon="14.940153537398">
        <ele>170.8</ele>
        <time>2020-03-26T19:31:40Z</time>
      </trkpt>
      <trkpt lat="57.099764990991" lon="14.940087320388">
        <ele>171.4</ele>
        <time>2020-03-26T19:31:45Z</time>
      </trkpt>
      <trkpt lat="57.099601543941" lon="14.939911887221">
        <ele>170.4</ele>
        <time>2020-03-26T19:31:52Z</time>
      </trkpt>
      <trkpt lat="57.099451172655" lon="14.939785655807">
        <ele>170</ele>
        <time>2020-03-26T19:31:58Z</time>
      </trkpt>
      <trkpt lat="57.099406078033" lon="14.939750284189">
        <ele>169.4</ele>
        <time>2020-03-26T19:32:00Z</time>
      </trkpt>
      <trkpt lat="57.099307674527" lon="14.939627992268">
        <ele>168.8</ele>
        <time>2020-03-26T19:32:05Z</time>
      </trkpt>
      <trkpt lat="57.099127044582" lon="14.939567223493">
        <ele>168</ele>
        <time>2020-03-26T19:32:12Z</time>
      </trkpt>
      <trkpt lat="57.099068119825" lon="14.939646935362">
        <ele>168.4</ele>
        <time>2020-03-26T19:32:15Z</time>
      </trkpt>
      <trkpt lat="57.099021097366" lon="14.939878946354">
        <ele>168.2</ele>
        <time>2020-03-26T19:32:23Z</time>
      </trkpt>
      <trkpt lat="57.098988743232" lon="14.939964944648">
        <ele>168</ele>
        <time>2020-03-26T19:32:26Z</time>
      </trkpt>
      <trkpt lat="57.098988407956" lon="14.940020265188">
        <ele>167.8</ele>
        <time>2020-03-26T19:32:28Z</time>
      </trkpt>
      <trkpt lat="57.098978684952" lon="14.940038453911">
        <ele>167.6</ele>
        <time>2020-03-26T19:32:29Z</time>
      </trkpt>
      <trkpt lat="57.098971560337" lon="14.940109532423">
        <ele>167.4</ele>
        <time>2020-03-26T19:32:32Z</time>
      </trkpt>
      <trkpt lat="57.098965022455" lon="14.940200811314">
        <ele>167.4</ele>
        <time>2020-03-26T19:32:34Z</time>
      </trkpt>
      <trkpt lat="57.098921520394" lon="14.940499039316">
        <ele>167</ele>
        <time>2020-03-26T19:32:41Z</time>
      </trkpt>
      <trkpt lat="57.098907103526" lon="14.940542373739">
        <ele>167</ele>
        <time>2020-03-26T19:32:42Z</time>
      </trkpt>
      <trkpt lat="57.098885729681" lon="14.940634742277">
        <ele>166.8</ele>
        <time>2020-03-26T19:32:44Z</time>
      </trkpt>
      <trkpt lat="57.098845412742" lon="14.940973873951">
        <ele>167.2</ele>
        <time>2020-03-26T19:32:49Z</time>
      </trkpt>
      <trkpt lat="57.098702082252" lon="14.94128324988">
        <ele>166.8</ele>
        <time>2020-03-26T19:32:56Z</time>
      </trkpt>
      <trkpt lat="57.098531510587" lon="14.941522385487">
        <ele>166.8</ele>
        <time>2020-03-26T19:33:02Z</time>
      </trkpt>
      <trkpt lat="57.098361693293" lon="14.941655322421">
        <ele>168</ele>
        <time>2020-03-26T19:33:08Z</time>
      </trkpt>
      <trkpt lat="57.098296985025" lon="14.941712067884">
        <ele>169.2</ele>
        <time>2020-03-26T19:33:11Z</time>
      </trkpt>
      <trkpt lat="57.098237305897" lon="14.941766298777">
        <ele>170.2</ele>
        <time>2020-03-26T19:33:14Z</time>
      </trkpt>
      <trkpt lat="57.098117528546" lon="14.941936451347">
        <ele>171.2</ele>
        <time>2020-03-26T19:33:20Z</time>
      </trkpt>
      <trkpt lat="57.097979562472" lon="14.942196793161">
        <ele>171.4</ele>
        <time>2020-03-26T19:33:28Z</time>
      </trkpt>
      <trkpt lat="57.097878560577" lon="14.94231757634">
        <ele>171</ele>
        <time>2020-03-26T19:33:34Z</time>
      </trkpt>
      <trkpt lat="57.097855426533" lon="14.94237038231">
        <ele>170.8</ele>
        <time>2020-03-26T19:33:36Z</time>
      </trkpt>
      <trkpt lat="57.097840506751" lon="14.942413632914">
        <ele>170.8</ele>
        <time>2020-03-26T19:33:38Z</time>
      </trkpt>
      <trkpt lat="57.097799938355" lon="14.942548330047">
        <ele>170.2</ele>
        <time>2020-03-26T19:33:41Z</time>
      </trkpt>
      <trkpt lat="57.097797172328" lon="14.94257490067">
        <ele>170</ele>
        <time>2020-03-26T19:33:42Z</time>
      </trkpt>
      <trkpt lat="57.09778694641" lon="14.942619743835">
        <ele>169.8</ele>
        <time>2020-03-26T19:33:44Z</time>
      </trkpt>
      <trkpt lat="57.097761549253" lon="14.942774892804">
        <ele>169.4</ele>
        <time>2020-03-26T19:33:47Z</time>
      </trkpt>
      <trkpt lat="57.09772827311" lon="14.94290933848">
        <ele>169.2</ele>
        <time>2020-03-26T19:33:54Z</time>
      </trkpt>
      <trkpt lat="57.097730200947" lon="14.942927946298">
        <ele>169.2</ele>
        <time>2020-03-26T19:33:55Z</time>
      </trkpt>
      <trkpt lat="57.097713269509" lon="14.943007490529">
        <ele>169</ele>
        <time>2020-03-26T19:33:56Z</time>
      </trkpt>
      <trkpt lat="57.097696589528" lon="14.943073707539">
        <ele>168.8</ele>
        <time>2020-03-26T19:33:57Z</time>
      </trkpt>
      <trkpt lat="57.097663481023" lon="14.9431507372">
        <ele>168.6</ele>
        <time>2020-03-26T19:33:59Z</time>
      </trkpt>
      <trkpt lat="57.097641604264" lon="14.943224078825">
        <ele>168.4</ele>
        <time>2020-03-26T19:34:02Z</time>
      </trkpt>
      <trkpt lat="57.097585026439" lon="14.943320219218">
        <ele>168.6</ele>
        <time>2020-03-26T19:34:07Z</time>
      </trkpt>
      <trkpt lat="57.097570525752" lon="14.943377132319">
        <ele>168.6</ele>
        <time>2020-03-26T19:34:11Z</time>
      </trkpt>
      <trkpt lat="57.097562479128" lon="14.943401775105">
        <ele>168.8</ele>
        <time>2020-03-26T19:34:13Z</time>
      </trkpt>
      <trkpt lat="57.097522748922" lon="14.94352624632">
        <ele>168.4</ele>
        <time>2020-03-26T19:34:23Z</time>
      </trkpt>
      <trkpt lat="57.097517468325" lon="14.943547787803">
        <ele>168.4</ele>
        <time>2020-03-26T19:34:25Z</time>
      </trkpt>
      <trkpt lat="57.097478827766" lon="14.943798155156">
        <ele>168.6</ele>
        <time>2020-03-26T19:34:36Z</time>
      </trkpt>
      <trkpt lat="57.097428620185" lon="14.943852721325">
        <ele>169</ele>
        <time>2020-03-26T19:34:40Z</time>
      </trkpt>
      <trkpt lat="57.097380759536" lon="14.943933439022">
        <ele>169.4</ele>
        <time>2020-03-26T19:34:45Z</time>
      </trkpt>
      <trkpt lat="57.097374976025" lon="14.943951460107">
        <ele>169.4</ele>
        <time>2020-03-26T19:34:46Z</time>
      </trkpt>
      <trkpt lat="57.097360223881" lon="14.944022538619">
        <ele>169.4</ele>
        <time>2020-03-26T19:34:48Z</time>
      </trkpt>
      <trkpt lat="57.097354272732" lon="14.944114488062">
        <ele>169.4</ele>
        <time>2020-03-26T19:34:51Z</time>
      </trkpt>
      <trkpt lat="57.097343962995" lon="14.944195205759">
        <ele>169.2</ele>
        <time>2020-03-26T19:34:53Z</time>
      </trkpt>
      <trkpt lat="57.097319990761" lon="14.944334345299">
        <ele>169.2</ele>
        <time>2020-03-26T19:34:58Z</time>
      </trkpt>
      <trkpt lat="57.097302221133" lon="14.944567194481">
        <ele>169.4</ele>
        <time>2020-03-26T19:35:06Z</time>
      </trkpt>
      <trkpt lat="57.097249331344" lon="14.944717398129">
        <ele>169.6</ele>
        <time>2020-03-26T19:35:11Z</time>
      </trkpt>
      <trkpt lat="57.097210858423" lon="14.94482208806">
        <ele>169.2</ele>
        <time>2020-03-26T19:35:18Z</time>
      </trkpt>
      <trkpt lat="57.097194262261" lon="14.944884449396">
        <ele>169.2</ele>
        <time>2020-03-26T19:35:20Z</time>
      </trkpt>
      <trkpt lat="57.09717842047" lon="14.944949912035">
        <ele>169.2</ele>
        <time>2020-03-26T19:35:22Z</time>
      </trkpt>
      <trkpt lat="57.097170457665" lon="14.944984361644">
        <ele>169.2</ele>
        <time>2020-03-26T19:35:24Z</time>
      </trkpt>
      <trkpt lat="57.097162578679" lon="14.945066420445">
        <ele>169</ele>
        <time>2020-03-26T19:35:29Z</time>
      </trkpt>
      <trkpt lat="57.097134750771" lon="14.945155268585">
        <ele>169</ele>
        <time>2020-03-26T19:35:32Z</time>
      </trkpt>
      <trkpt lat="57.09710968889" lon="14.945193992963">
        <ele>168.8</ele>
        <time>2020-03-26T19:35:34Z</time>
      </trkpt>
      <trkpt lat="57.09704263369" lon="14.945298263799">
        <ele>168.8</ele>
        <time>2020-03-26T19:35:39Z</time>
      </trkpt>
      <trkpt lat="57.096992509928" lon="14.945239590499">
        <ele>169.2</ele>
        <time>2020-03-26T19:35:43Z</time>
      </trkpt>
      <trkpt lat="57.096924113624" lon="14.945116544207">
        <ele>170</ele>
        <time>2020-03-26T19:35:47Z</time>
      </trkpt>
      <trkpt lat="57.096852867474" lon="14.944867015044">
        <ele>171</ele>
        <time>2020-03-26T19:35:54Z</time>
      </trkpt>
      <trkpt lat="57.096739795643" lon="14.944570128146">
        <ele>171.4</ele>
        <time>2020-03-26T19:36:02Z</time>
      </trkpt>
      <trkpt lat="57.096674500642" lon="14.944470551174">
        <ele>172.2</ele>
        <time>2020-03-26T19:36:05Z</time>
      </trkpt>
      <trkpt lat="57.096512143239" lon="14.944360664465">
        <ele>173</ele>
        <time>2020-03-26T19:36:11Z</time>
      </trkpt>
      <trkpt lat="57.096484902064" lon="14.944343230113">
        <ele>173.2</ele>
        <time>2020-03-26T19:36:12Z</time>
      </trkpt>
      <trkpt lat="57.09632681943" lon="14.944201073089">
        <ele>174.2</ele>
        <time>2020-03-26T19:36:18Z</time>
      </trkpt>
      <trkpt lat="57.096146021847" lon="14.944193361741">
        <ele>175</ele>
        <time>2020-03-26T19:36:25Z</time>
      </trkpt>
      <trkpt lat="57.096104196166" lon="14.944219094174">
        <ele>175.4</ele>
        <time>2020-03-26T19:36:27Z</time>
      </trkpt>
      <trkpt lat="57.096068237815" lon="14.944256980362">
        <ele>175.6</ele>
        <time>2020-03-26T19:36:30Z</time>
      </trkpt>
      <trkpt lat="57.096056335517" lon="14.944271732506">
        <ele>175.8</ele>
        <time>2020-03-26T19:36:31Z</time>
      </trkpt>
    </trkseg>
  </trk>
</gpx>